»·PEaware :: AAL1021 KPHX-KSLC

AAL1021 :: KPHX-KSLC

FLIGHT INFORMATION

Flight Status: Arrived
Operator:
American Airlines
More flights by this operator :: More flights under this callsign
Pilot: Dave P. (45)
Aircraft: BOEING 737-600
(B736)
More flights by this aircraft type
Origin: KPHX Phoenix Sky Harbor Intl
United States
Destination: KSLC Salt Lake City Intl
United States
More flights between these airports :: More routes between these airports
Route: SNOBL5 GCN BCE DELTA5
File this flight plan on PilotEdge
Remarks: PBN / A1B1C1D1S1S2 DOF / 180428 REG / N736PM EET / KZLA0020 KZLC0036 OPR / AAL PER / C RMK / TCAS SIMBRIEF
Altitude:
(Current/Filed)
36,000ft
Speed:
(Current/Filed)
456kts
Departed: 28-Apr-18 07:32 AM
Arrived: 28-Apr-18 08:45 AM
Distance/Time
Traveled:
441nm/1:13
Distance/Time
To Go:
Arrived

Flight Plot

Page will automatically refresh every two minutes.

Flight plan parsing failed; only flown route is shown


Map Options




Map Legend


Flown Route
Filed Route
Departure Airport
Arrival Airport
Navaid (VOR, NDB)
Fix

Horizontal Profiles

Position Reports

Time Latitude Longitude Heading Altitude Ground
Speed
28-Apr-18 07:04 33.438187 -111.996259 244 1143ft 0kts
28-Apr-18 07:05 33.438187 -111.996259 244 1143ft 0kts
28-Apr-18 07:06 33.438187 -111.996259 244 1143ft 0kts
28-Apr-18 07:07 33.438187 -111.996259 244 1143ft 0kts
28-Apr-18 07:08 33.438187 -111.996259 244 1143ft 0kts
28-Apr-18 07:09 33.438187 -111.996259 244 1143ft 0kts
28-Apr-18 07:10 33.438187 -111.996259 244 1143ft 0kts
28-Apr-18 07:11 33.438187 -111.996259 244 1143ft 0kts
28-Apr-18 07:12 33.438187 -111.996259 244 1143ft 0kts
28-Apr-18 07:13 33.438187 -111.996259 244 1143ft 0kts
28-Apr-18 07:14 33.438187 -111.996259 244 1143ft 0kts
28-Apr-18 07:15 33.438187 -111.996259 244 1143ft 0kts
28-Apr-18 07:16 33.438187 -111.996259 244 1143ft 0kts
28-Apr-18 07:17 33.438187 -111.996259 244 1143ft 0kts
28-Apr-18 07:18 33.438187 -111.996259 244 1143ft 0kts
28-Apr-18 07:19 33.438187 -111.996259 244 1143ft 0kts
28-Apr-18 07:20 33.438198 -111.996230 244 1142ft 1kts
28-Apr-18 07:21 33.438109 -111.995546 313 1142ft 0kts
28-Apr-18 07:22 33.438109 -111.995546 313 1142ft 0kts
28-Apr-18 07:23 33.438110 -111.995547 313 1142ft 0kts
28-Apr-18 07:24 33.439001 -111.996234 273 1142ft 10kts
28-Apr-18 07:25 33.438993 -112.002519 270 1142ft 21kts
28-Apr-18 07:26 33.438992 -112.009985 269 1142ft 22kts
28-Apr-18 07:27 33.438996 -112.017211 270 1142ft 21kts
28-Apr-18 07:28 33.438991 -112.024549 270 1142ft 23kts
28-Apr-18 07:29 33.439615 -112.029679 0 1142ft 8kts
28-Apr-18 07:30 33.440845 -112.029000 90 1142ft 9kts
28-Apr-18 07:31 33.440907 -111.996070 89 1877ft 150kts
28-Apr-18 07:32 33.438341 -111.940304 93 3714ft 207kts
28-Apr-18 07:33 33.448526 -111.862498 42 5882ft 278kts
28-Apr-18 07:34 33.525647 -111.842063 1 9224ft 299kts
28-Apr-18 07:35 33.614361 -111.838301 1 11627ft 355kts
28-Apr-18 07:36 33.717928 -111.849779 346 14665ft 380kts
28-Apr-18 07:37 33.823101 -111.874741 347 18118ft 391kts
28-Apr-18 07:38 33.932443 -111.899658 347 21014ft 410kts
28-Apr-18 07:39 34.047247 -111.925665 348 23569ft 427kts
28-Apr-18 07:40 34.167126 -111.944990 354 25891ft 443kts
28-Apr-18 07:41 34.291745 -111.957772 352 27919ft 456kts
28-Apr-18 07:42 34.420078 -111.971908 352 29690ft 467kts
28-Apr-18 07:43 34.550029 -111.986235 352 31680ft 466kts
28-Apr-18 07:44 34.678279 -112.000463 351 33670ft 460kts
28-Apr-18 07:45 34.805883 -112.014699 351 35246ft 458kts
28-Apr-18 07:46 34.932865 -112.029011 351 36091ft 461kts
28-Apr-18 07:47 35.060089 -112.043372 351 36110ft 456kts
28-Apr-18 07:48 35.186522 -112.057670 351 36130ft 457kts
28-Apr-18 07:49 35.312937 -112.072058 351 36131ft 457kts
28-Apr-18 07:50 35.439925 -112.085417 351 36133ft 457kts
28-Apr-18 07:51 35.566546 -112.098586 350 36135ft 457kts
28-Apr-18 07:52 35.692854 -112.113794 350 36136ft 456kts
28-Apr-18 07:53 35.819622 -112.129051 350 36138ft 456kts
28-Apr-18 07:54 35.945874 -112.144293 350 36140ft 456kts
28-Apr-18 07:55 36.072511 -112.156252 352 36137ft 457kts
28-Apr-18 07:56 36.199728 -112.167556 352 36127ft 458kts
28-Apr-18 07:57 36.326645 -112.178944 352 36111ft 458kts
28-Apr-18 07:58 36.453692 -112.190372 352 36092ft 459kts
28-Apr-18 07:59 36.581384 -112.201923 352 36070ft 459kts
28-Apr-18 08:00 36.708798 -112.213497 352 36049ft 460kts
28-Apr-18 08:01 36.836798 -112.225164 352 36038ft 461kts
28-Apr-18 08:02 36.964703 -112.236864 352 36039ft 461kts
28-Apr-18 08:03 37.092691 -112.248611 352 36044ft 462kts
28-Apr-18 08:04 37.221327 -112.260458 352 36057ft 463kts
28-Apr-18 08:05 37.349725 -112.272324 352 36075ft 463kts
28-Apr-18 08:06 37.478254 -112.284219 352 36097ft 464kts
28-Apr-18 08:07 37.607340 -112.296249 352 36119ft 464kts
28-Apr-18 08:08 37.735925 -112.309351 351 36128ft 464kts
28-Apr-18 08:09 37.864200 -112.325286 351 36114ft 464kts
28-Apr-18 08:10 37.992858 -112.341200 351 36088ft 463kts
28-Apr-18 08:11 38.121306 -112.357039 351 36054ft 464kts
28-Apr-18 08:12 38.250308 -112.373010 351 36023ft 465kts
28-Apr-18 08:13 38.357587 -112.386344 351 36001ft 466kts
28-Apr-18 08:14 38.486563 -112.402427 351 35976ft 466kts
28-Apr-18 08:15 38.616199 -112.418631 351 35959ft 467kts
28-Apr-18 08:16 38.745458 -112.434897 351 35953ft 468kts
28-Apr-18 08:17 38.875007 -112.451238 351 35947ft 468kts
28-Apr-18 08:18 39.005270 -112.467720 351 35941ft 469kts
28-Apr-18 08:19 39.135229 -112.484213 351 35935ft 470kts
28-Apr-18 08:20 39.265597 -112.500220 354 35930ft 472kts
28-Apr-18 08:21 39.396147 -112.475381 13 34990ft 475kts
28-Apr-18 08:22 39.524411 -112.432016 13 31674ft 479kts
28-Apr-18 08:23 39.653534 -112.388810 13 28480ft 472kts
28-Apr-18 08:24 39.778425 -112.347184 13 25756ft 457kts
28-Apr-18 08:25 39.899958 -112.306374 13 23053ft 446kts
28-Apr-18 08:26 40.019118 -112.266163 14 20376ft 437kts
28-Apr-18 08:27 40.135622 -112.226813 14 17738ft 426kts
28-Apr-18 08:28 40.247639 -112.188712 14 15252ft 409kts
28-Apr-18 08:29 40.354383 -112.152388 14 13709ft 388kts
28-Apr-18 08:30 40.459436 -112.116486 14 13107ft 382kts
28-Apr-18 08:31 40.557538 -112.084079 9 11985ft 345kts
28-Apr-18 08:32 40.649344 -112.079181 354 11011ft 318kts
28-Apr-18 08:33 40.737239 -112.090172 352 10985ft 314kts
28-Apr-18 08:34 40.822936 -112.100321 353 10910ft 301kts
28-Apr-18 08:35 40.902685 -112.105714 357 9643ft 273kts
28-Apr-18 08:36 40.975503 -112.109089 357 8531ft 243kts
28-Apr-18 08:37 41.012607 -112.055064 81 7619ft 206kts
28-Apr-18 08:38 41.001765 -111.997492 169 7017ft 171kts
28-Apr-18 08:39 40.953164 -111.993641 175 6987ft 175kts
28-Apr-18 08:40 40.904958 -111.988191 174 6125ft 167kts
28-Apr-18 08:41 40.860938 -111.983070 173 5293ft 142kts
28-Apr-18 08:42 40.823757 -111.978745 173 4570ft 131kts
28-Apr-18 08:43 40.794225 -111.975294 175 4235ft 46kts
28-Apr-18 08:44 40.789837 -111.976618 206 4235ft 9kts
28-Apr-18 08:45 40.786234 -111.976579 176 4235ft 15kts
28-Apr-18 08:46 40.784535 -111.977251 328 4235ft 6kts
28-Apr-18 08:47 40.784769 -111.977374 340 4235ft 0kts
28-Apr-18 08:48 40.784769 -111.977374 340 4235ft 0kts
28-Apr-18 08:49 40.784769 -111.977374 340 4235ft 0kts
28-Apr-18 08:50 40.784769 -111.977374 340 4235ft 0kts
28-Apr-18 08:51 40.784769 -111.977374 340 4235ft 0kts

Navigation Log

Ident Type
Flight plan parsing failed, navigation log unavailable